Time;durP1;ratioP1;P1;durP2;ratioP2;P2;SDS_P1;SDS_P2;PMS_P1;PMS_P2;Temp;Humidity;BMP_temperature;BMP_pressure;BME280_temperature;BME280_humidity;BME280_pressure;Samples;Min_cycle;Max_cycle;Signal;HPM_P1;HPM_P2
2023/08/06 00:03:24;;;;;;;1.40;1.00;;;24.70;63.40;;;;;;219513;1273;22520;-61
2023/08/06 00:08:28;;;;;;;1.30;1.20;;;24.70;63.50;;;;;;219459;1280;24249;-60
2023/08/06 00:13:32;;;;;;;1.30;1.20;;;24.70;63.60;;;;;;219436;1280;24446;-60
2023/08/06 00:18:36;;;;;;;0.90;0.90;;;24.70;63.60;;;;;;219292;1279;22546;-61
2023/08/06 00:23:41;;;;;;;1.10;1.00;;;24.70;63.70;;;;;;219555;1280;22751;-62
2023/08/06 00:28:45;;;;;;;1.20;1.10;;;24.70;63.70;;;;;;219514;1273;24812;-60
2023/08/06 00:33:50;;;;;;;1.20;1.10;;;24.70;63.60;;;;;;219505;1280;23903;-63
2023/08/06 00:38:55;;;;;;;1.00;1.00;;;24.70;63.70;;;;;;219553;1273;25431;-61
2023/08/06 00:43:59;;;;;;;1.00;1.00;;;24.70;63.70;;;;;;219257;1280;25422;-60
2023/08/06 00:49:05;;;;;;;1.00;1.00;;;24.70;64.40;;;;;;219392;1285;22650;-63
2023/08/06 00:54:18;;;;;;;1.10;1.00;;;24.70;63.70;;;;;;219455;1280;22524;-60
2023/08/06 00:59:26;;;;;;;1.40;1.00;;;24.70;63.80;;;;;;219572;1276;22549;-61
2023/08/06 01:04:30;;;;;;;1.30;1.20;;;24.70;63.80;;;;;;219597;1274;22530;-61
2023/08/06 01:09:37;;;;;;;1.20;1.10;;;24.70;63.70;;;;;;219566;1279;22642;-60
2023/08/06 01:15:01;;;;;;;1.50;1.10;;;24.70;63.60;;;;;;219533;1273;22539;-61
2023/08/06 01:20:06;;;;;;;1.20;1.00;;;24.70;63.60;;;;;;219639;1276;22646;-62
2023/08/06 01:25:10;;;;;;;0.90;0.90;;;24.70;64.00;;;;;;219355;1286;22585;-60
2023/08/06 01:30:27;;;;;;;1.00;0.90;;;24.70;64.20;;;;;;219451;1277;22549;-60
2023/08/06 01:35:32;;;;;;;0.80;0.80;;;24.60;63.90;;;;;;219543;1279;25417;-61
2023/08/06 01:40:36;;;;;;;0.90;0.90;;;24.70;63.90;;;;;;219297;1273;23054;-62
2023/08/06 01:45:43;;;;;;;0.80;0.80;;;24.60;64.00;;;;;;219589;1283;22536;-62
2023/08/06 01:50:47;;;;;;;1.10;0.90;;;24.60;64.30;;;;;;219277;1280;24269;-63
2023/08/06 01:55:51;;;;;;;0.80;0.80;;;24.60;64.10;;;;;;219283;1274;22593;-62
2023/08/06 02:00:55;;;;;;;0.90;0.90;;;24.60;64.10;;;;;;219317;1273;23938;-62
2023/08/06 02:06:00;;;;;;;1.70;0.90;;;24.60;64.10;;;;;;219396;1280;22585;-63
2023/08/06 02:11:05;;;;;;;1.60;1.00;;;24.70;64.00;;;;;;219555;1274;24227;-64
2023/08/06 02:16:10;;;;;;;1.00;0.80;;;24.60;64.20;;;;;;219240;1273;286539;-63
2023/08/06 02:21:15;;;;;;;0.70;0.70;;;24.60;64.50;;;;;;219419;1272;22530;-65
2023/08/06 02:26:19;;;;;;;2.20;0.80;;;24.60;64.40;;;;;;219537;1283;22545;-62
2023/08/06 02:31:24;;;;;;;0.90;0.90;;;24.60;64.50;;;;;;219632;1273;25492;-64
2023/08/06 02:36:29;;;;;;;0.80;0.80;;;24.60;64.20;;;;;;219526;1276;22630;-62
2023/08/06 02:41:34;;;;;;;0.80;0.70;;;24.70;64.60;;;;;;219398;1283;22868;-62
2023/08/06 02:46:38;;;;;;;0.90;0.70;;;24.60;65.00;;;;;;219493;1273;22546;-60
2023/08/06 02:51:45;;;;;;;0.70;0.70;;;24.60;64.50;;;;;;219240;1274;22559;-60
2023/08/06 02:56:50;;;;;;;0.80;0.80;;;24.60;64.50;;;;;;219578;1279;22530;-60
2023/08/06 03:01:59;;;;;;;3.40;0.90;;;24.70;65.00;;;;;;219495;1276;22533;-61
2023/08/06 03:07:11;;;;;;;1.10;1.00;;;24.60;64.30;;;;;;219462;1280;22516;-60
2023/08/06 03:12:25;;;;;;;1.10;0.80;;;24.60;64.30;;;;;;219633;1273;22530;-61
2023/08/06 03:17:30;;;;;;;1.00;0.80;;;24.60;64.30;;;;;;219355;1273;22523;-60
2023/08/06 03:22:34;;;;;;;0.80;0.80;;;24.60;64.80;;;;;;219563;1273;22702;-62
2023/08/06 03:27:39;;;;;;;1.30;1.20;;;24.60;65.10;;;;;;219502;1271;22543;-61
2023/08/06 03:32:43;;;;;;;0.70;0.70;;;24.70;65.20;;;;;;219400;1280;23415;-60
2023/08/06 03:37:49;;;;;;;0.60;0.60;;;24.60;64.20;;;;;;219312;1273;22531;-60
2023/08/06 03:42:54;;;;;;;0.70;0.70;;;24.50;64.60;;;;;;219660;1280;25486;-62
2023/08/06 03:47:58;;;;;;;0.80;0.80;;;24.60;64.30;;;;;;219267;1280;22530;-60
2023/08/06 03:53:03;;;;;;;0.90;0.80;;;24.50;64.30;;;;;;219561;1280;24298;-61
2023/08/06 03:58:07;;;;;;;0.80;0.70;;;24.60;64.30;;;;;;219464;1286;22541;-62
2023/08/06 04:03:11;;;;;;;2.80;0.90;;;24.60;64.40;;;;;;219200;1286;22626;-62
2023/08/06 04:08:16;;;;;;;0.90;0.90;;;24.60;64.40;;;;;;219477;1274;22547;-63
2023/08/06 04:13:23;;;;;;;1.10;0.50;;;24.60;64.60;;;;;;219494;1283;22527;-64
2023/08/06 04:18:27;;;;;;;2.60;0.70;;;24.60;64.50;;;;;;219224;1286;22569;-63
2023/08/06 04:23:32;;;;;;;1.10;0.70;;;24.50;64.70;;;;;;219417;1286;24200;-63
2023/08/06 04:28:40;;;;;;;0.60;0.50;;;24.50;64.40;;;;;;218906;1286;25960;-62
2023/08/06 04:33:45;;;;;;;0.60;0.60;;;24.60;64.80;;;;;;218825;1277;23180;-62
2023/08/06 04:38:52;;;;;;;0.60;0.60;;;24.60;64.40;;;;;;218766;1289;22536;-64
2023/08/06 04:43:59;;;;;;;0.60;0.60;;;24.50;65.20;;;;;;218601;1271;24205;-61
2023/08/06 04:49:07;;;;;;;1.00;0.80;;;24.50;64.40;;;;;;219453;1286;22530;-63
2023/08/06 04:54:15;;;;;;;0.50;0.50;;;24.50;64.90;;;;;;219392;1287;22764;-62
2023/08/06 04:59:19;;;;;;;8.00;0.80;;;24.50;64.50;;;;;;219327;1274;22585;-63
2023/08/06 05:04:23;;;;;;;0.70;0.70;;;24.50;64.70;;;;;;219399;1283;23982;-62
2023/08/06 05:09:28;;;;;;;1.00;0.70;;;24.50;64.40;;;;;;219405;1280;23934;-62
2023/08/06 05:14:32;;;;;;;0.90;0.90;;;24.50;64.40;;;;;;219490;1281;22583;-62
2023/08/06 05:19:36;;;;;;;0.70;0.70;;;24.50;64.40;;;;;;219290;1279;22538;-62
2023/08/06 05:24:40;;;;;;;2.20;0.40;;;24.50;64.60;;;;;;219475;1280;22614;-62
2023/08/06 05:29:45;;;;;;;0.50;0.50;;;24.50;64.30;;;;;;219325;1276;22583;-62
2023/08/06 05:34:49;;;;;;;1.10;0.50;;;24.50;64.60;;;;;;219338;1280;22717;-62
2023/08/06 05:39:54;;;;;;;0.60;0.50;;;24.50;64.30;;;;;;219566;1283;24223;-63
2023/08/06 05:44:58;;;;;;;0.60;0.60;;;24.50;64.30;;;;;;219201;1276;25363;-63
2023/08/06 05:50:02;;;;;;;0.90;0.60;;;24.50;64.50;;;;;;219432;1273;22537;-62
2023/08/06 05:55:07;;;;;;;1.20;0.50;;;24.50;64.00;;;;;;219424;1283;25317;-60
2023/08/06 06:00:11;;;;;;;1.50;0.40;;;24.50;64.70;;;;;;219523;1274;22527;-64
2023/08/06 06:05:16;;;;;;;0.80;0.40;;;24.50;64.30;;;;;;219461;1279;24185;-63
2023/08/06 06:10:20;;;;;;;2.50;0.60;;;24.40;64.30;;;;;;219304;1280;22661;-61
2023/08/06 06:15:24;;;;;;;0.60;0.50;;;24.50;64.30;;;;;;219500;1286;22530;-62
2023/08/06 06:20:28;;;;;;;1.00;0.70;;;24.50;64.40;;;;;;219507;1280;25297;-62
2023/08/06 06:25:32;;;;;;;0.60;0.50;;;24.50;64.30;;;;;;219383;1286;22541;-62
2023/08/06 06:30:37;;;;;;;0.80;0.50;;;24.40;64.60;;;;;;219268;1275;22711;-61
2023/08/06 06:35:41;;;;;;;0.40;0.40;;;24.50;64.30;;;;;;219403;1279;22826;-64
2023/08/06 06:40:56;;;;;;;0.40;0.40;;;24.50;64.50;;;;;;219663;1285;22553;-62
2023/08/06 06:46:00;;;;;;;1.30;0.50;;;24.50;64.30;;;;;;219451;1280;22527;-60
2023/08/06 06:51:05;;;;;;;0.50;0.50;;;24.40;64.50;;;;;;219354;1283;22549;-62
2023/08/06 06:56:09;;;;;;;0.50;0.50;;;24.40;64.50;;;;;;219234;1280;22527;-63
2023/08/06 07:01:13;;;;;;;0.60;0.40;;;24.40;64.30;;;;;;219195;1286;25431;-63
2023/08/06 07:06:18;;;;;;;0.50;0.50;;;24.50;64.20;;;;;;219418;1274;22544;-63
2023/08/06 07:11:22;;;;;;;0.50;0.50;;;24.40;64.60;;;;;;219351;1283;24040;-63
2023/08/06 07:16:26;;;;;;;0.40;0.40;;;24.40;64.20;;;;;;219524;1273;22614;-63
2023/08/06 07:21:32;;;;;;;1.80;0.50;;;24.40;64.40;;;;;;219345;1273;22553;-62
2023/08/06 07:26:36;;;;;;;0.60;0.30;;;24.40;64.50;;;;;;219490;1282;24401;-62
2023/08/06 07:31:40;;;;;;;1.00;0.40;;;24.40;64.10;;;;;;219483;1279;22661;-62
2023/08/06 07:36:46;;;;;;;4.90;0.80;;;24.50;64.20;;;;;;219313;1266;24342;-48
2023/08/06 07:41:50;;;;;;;2.30;0.50;;;24.50;64.40;;;;;;219434;1284;25418;-51
2023/08/06 07:46:55;;;;;;;4.30;0.50;;;24.40;64.40;;;;;;219300;1286;23014;-49
2023/08/06 07:52:03;;;;;;;3.50;0.40;;;24.30;63.50;;;;;;219322;1274;22590;-50
2023/08/06 07:57:07;;;;;;;2.00;0.60;;;24.30;63.80;;;;;;219367;1279;22547;-51
2023/08/06 08:02:12;;;;;;;6.00;0.40;;;24.20;63.10;;;;;;219459;1284;22534;-50
2023/08/06 08:07:16;;;;;;;3.90;0.40;;;24.20;63.60;;;;;;219408;1286;22683;-50
2023/08/06 08:12:21;;;;;;;6.10;0.50;;;24.20;63.40;;;;;;219384;1271;24204;-51
2023/08/06 08:17:25;;;;;;;2.70;0.40;;;24.20;63.20;;;;;;218955;1280;23002;-53
2023/08/06 08:22:32;;;;;;;3.00;0.50;;;24.20;63.00;;;;;;219002;1277;22686;-51
2023/08/06 08:27:37;;;;;;;4.90;0.60;;;24.30;63.40;;;;;;219246;1283;23942;-52
2023/08/06 08:32:42;;;;;;;4.00;0.50;;;24.30;64.30;;;;;;219448;1281;24242;-53
2023/08/06 08:37:46;;;;;;;6.30;0.70;;;24.30;64.70;;;;;;219261;1270;24082;-52
2023/08/06 08:42:51;;;;;;;2.20;0.90;;;24.40;65.50;;;;;;219327;1283;22547;-54
2023/08/06 08:47:58;;;;;;;3.90;1.50;;;24.50;65.60;;;;;;219455;1280;24761;-50
2023/08/06 08:53:03;;;;;;;8.30;1.30;;;24.70;65.60;;;;;;219410;1280;24236;-53
2023/08/06 08:58:13;;;;;;;8.20;1.70;;;24.70;65.80;;;;;;219428;1286;24046;-53
2023/08/06 09:03:17;;;;;;;4.50;1.40;;;24.70;65.20;;;;;;219227;1286;22625;-56
2023/08/06 09:08:31;;;;;;;3.70;1.30;;;24.60;65.50;;;;;;219546;1280;22526;-54
2023/08/06 09:13:37;;;;;;;4.90;1.60;;;24.60;65.70;;;;;;219566;1286;22597;-55
2023/08/06 09:18:41;;;;;;;6.10;1.40;;;24.70;66.50;;;;;;219455;1281;24250;-52
2023/08/06 09:23:47;;;;;;;5.40;1.00;;;24.60;66.10;;;;;;219402;1283;22522;-53
2023/08/06 09:28:52;;;;;;;5.70;1.20;;;24.60;66.50;;;;;;219336;1281;22575;-51
2023/08/06 09:34:01;;;;;;;5.80;1.40;;;24.60;65.50;;;;;;219183;1283;22530;-52
2023/08/06 09:39:14;;;;;;;4.70;1.30;;;24.70;65.90;;;;;;219298;1280;22817;-53
2023/08/06 09:44:19;;;;;;;5.30;1.30;;;24.70;65.70;;;;;;219355;1283;24369;-54
2023/08/06 09:49:40;;;;;;;2.10;1.30;;;24.70;65.20;;;;;;219183;1279;22833;-50
2023/08/06 09:54:47;;;;;;;5.40;2.00;;;24.70;65.70;;;;;;219023;1274;22530;-51
2023/08/06 09:59:52;;;;;;;5.00;1.40;;;24.80;65.30;;;;;;220683;1284;22543;-52
2023/08/06 10:04:58;;;;;;;10.10;2.00;;;24.80;65.20;;;;;;219336;1280;24479;-52
2023/08/06 10:10:03;;;;;;;13.80;2.70;;;24.60;65.60;;;;;;219442;1279;22785;-54
2023/08/06 10:15:11;;;;;;;11.40;2.30;;;24.60;65.70;;;;;;219419;1286;22624;-53
2023/08/06 10:20:15;;;;;;;11.00;3.00;;;24.60;65.50;;;;;;219260;1273;24074;-55
2023/08/06 10:25:19;;;;;;;11.50;3.20;;;24.50;65.90;;;;;;219323;1273;22527;-52
2023/08/06 10:30:32;;;;;;;13.20;2.90;;;24.50;66.10;;;;;;219327;1286;22537;-55
2023/08/06 10:35:44;;;;;;;33.10;3.20;;;24.60;65.70;;;;;;219365;1283;22514;-55
2023/08/06 10:40:53;;;;;;;11.80;3.00;;;24.80;65.50;;;;;;219202;1281;22552;-50
2023/08/06 10:45:59;;;;;;;10.40;2.60;;;24.70;65.60;;;;;;219362;1285;22691;-48
2023/08/06 10:51:04;;;;;;;12.40;2.60;;;24.80;65.20;;;;;;219343;1286;22656;-49
2023/08/06 10:56:16;;;;;;;9.90;2.50;;;24.80;65.20;;;;;;219373;1273;25340;-48
2023/08/06 11:01:22;;;;;;;9.50;3.90;;;24.70;65.50;;;;;;219292;1280;24996;-50
2023/08/06 11:06:28;;;;;;;11.50;3.40;;;24.80;66.80;;;;;;219373;1273;22642;-51
2023/08/06 11:11:32;;;;;;;13.00;3.60;;;24.70;67.60;;;;;;219024;1269;22537;-46
2023/08/06 11:16:36;;;;;;;9.60;2.90;;;24.80;68.00;;;;;;219156;1283;22665;-55
2023/08/06 11:21:43;;;;;;;6.90;3.00;;;25.10;66.90;;;;;;219270;1285;24265;-46
2023/08/06 11:26:48;;;;;;;12.30;3.00;;;25.10;66.50;;;;;;219431;1284;22618;-52
2023/08/06 11:31:52;;;;;;;11.30;3.60;;;25.10;67.10;;;;;;219302;1287;22758;-50
2023/08/06 11:36:57;;;;;;;15.90;3.30;;;25.10;66.30;;;;;;219395;1286;22721;-50
2023/08/06 11:42:03;;;;;;;9.20;3.00;;;25.20;66.30;;;;;;219315;1283;24942;-48
2023/08/06 11:47:13;;;;;;;12.90;2.90;;;25.30;66.00;;;;;;219335;1287;22544;-49
2023/08/06 11:52:19;;;;;;;10.00;2.40;;;25.30;66.00;;;;;;219320;1285;24347;-49
2023/08/06 11:57:24;;;;;;;13.70;3.10;;;25.30;65.50;;;;;;219442;1280;25249;-50
2023/08/06 12:02:34;;;;;;;11.20;2.60;;;25.20;66.20;;;;;;219362;1286;22550;-48
2023/08/06 12:07:40;;;;;;;9.40;2.60;;;25.30;66.50;;;;;;219355;1285;22532;-47
2023/08/06 12:12:44;;;;;;;6.50;2.20;;;25.40;66.60;;;;;;219407;1280;24358;-50
2023/08/06 12:17:48;;;;;;;7.30;1.90;;;25.40;66.10;;;;;;219504;1286;22537;-48
2023/08/06 12:22:52;;;;;;;8.30;2.20;;;25.40;66.30;;;;;;219641;1280;22664;-46
2023/08/06 12:27:57;;;;;;;7.00;2.40;;;25.40;66.40;;;;;;219246;1272;22570;-47
2023/08/06 12:33:01;;;;;;;6.60;2.90;;;25.30;66.20;;;;;;219697;1276;22976;-48
2023/08/06 12:38:06;;;;;;;5.60;2.00;;;25.40;66.40;;;;;;219180;1286;25429;-51
2023/08/06 12:43:10;;;;;;;8.30;2.20;;;25.40;66.10;;;;;;219351;1274;22539;-55
2023/08/06 12:48:14;;;;;;;4.40;1.90;;;25.30;66.30;;;;;;219438;1280;22540;-51
2023/08/06 12:53:20;;;;;;;4.10;1.60;;;25.30;66.10;;;;;;219301;1280;24785;-52
2023/08/06 12:58:27;;;;;;;6.00;2.00;;;25.30;66.10;;;;;;219150;1285;22547;-49
2023/08/06 13:03:32;;;;;;;4.90;2.00;;;25.10;66.80;;;;;;219262;1278;22526;-50
2023/08/06 13:08:37;;;;;;;3.50;1.80;;;25.00;66.60;;;;;;219647;1287;24208;-55
2023/08/06 13:13:42;;;;;;;5.90;2.10;;;25.10;66.60;;;;;;219386;1281;22587;-49
2023/08/06 13:18:47;;;;;;;3.80;1.70;;;25.00;66.80;;;;;;219392;1280;22561;-50
2023/08/06 13:23:52;;;;;;;4.00;1.20;;;24.90;67.30;;;;;;219334;1280;23965;-49
2023/08/06 13:28:58;;;;;;;2.70;1.60;;;24.90;67.30;;;;;;219363;1286;22610;-53
2023/08/06 13:34:02;;;;;;;4.70;1.60;;;24.90;67.00;;;;;;219719;1279;22656;-48
2023/08/06 13:39:08;;;;;;;2.80;1.50;;;24.90;66.80;;;;;;219236;1280;24266;-49
2023/08/06 13:44:14;;;;;;;3.20;1.50;;;24.90;67.00;;;;;;219436;1286;22636;-51
2023/08/06 13:49:19;;;;;;;4.70;1.60;;;24.90;67.30;;;;;;219326;1285;22532;-51
2023/08/06 13:54:27;;;;;;;3.10;1.40;;;24.80;67.10;;;;;;219485;1273;22650;-49
2023/08/06 13:59:32;;;;;;;4.90;1.60;;;24.90;67.00;;;;;;219536;1283;24390;-48
2023/08/06 14:04:37;;;;;;;3.60;1.60;;;24.90;66.80;;;;;;219390;1283;23898;-52
2023/08/06 14:09:44;;;;;;;8.70;2.10;;;24.90;67.10;;;;;;219334;1283;23094;-49
2023/08/06 14:14:48;;;;;;;7.30;1.70;;;24.80;67.40;;;;;;218884;1280;381836;-51
2023/08/06 14:19:53;;;;;;;8.70;1.90;;;24.90;67.60;;;;;;219475;1286;22592;-48
2023/08/06 14:25:00;;;;;;;13.20;1.60;;;24.90;67.30;;;;;;218745;1280;24224;-49
2023/08/06 14:30:08;;;;;;;7.70;1.40;;;24.90;68.00;;;;;;218558;1277;22603;-54
2023/08/06 14:35:14;;;;;;;6.10;1.90;;;24.90;68.00;;;;;;218081;1273;24419;-52
2023/08/06 14:40:19;;;;;;;6.20;2.00;;;24.90;68.00;;;;;;218144;1289;22560;-51
2023/08/06 14:45:26;;;;;;;3.10;1.70;;;25.00;69.40;;;;;;218025;1289;25383;-53
2023/08/06 14:50:31;;;;;;;8.30;1.80;;;25.20;69.00;;;;;;218147;1288;25354;-51
2023/08/06 14:55:37;;;;;;;4.40;1.70;;;25.20;69.00;;;;;;218486;1289;25790;-53
2023/08/06 15:00:42;;;;;;;2.80;1.90;;;25.30;69.60;;;;;;218730;1286;22537;-52
2023/08/06 15:05:53;;;;;;;28.40;6.20;;;25.20;68.90;;;;;;218789;1283;22586;-57
2023/08/06 15:11:01;;;;;;;23.20;7.30;;;24.90;67.80;;;;;;219048;1276;23186;-56
2023/08/06 15:16:07;;;;;;;18.30;5.30;;;24.70;67.50;;;;;;219496;1274;25404;-55
2023/08/06 15:21:11;;;;;;;20.40;5.00;;;25.00;67.80;;;;;;219481;1280;22649;-56
2023/08/06 15:26:17;;;;;;;15.40;5.00;;;25.20;67.50;;;;;;219708;1279;22536;-55
2023/08/06 15:31:35;;;;;;;14.50;4.50;;;25.20;66.90;;;;;;219439;1280;24301;-57
2023/08/06 15:36:40;;;;;;;14.10;4.00;;;25.20;66.60;;;;;;219507;1280;25297;-56
2023/08/06 15:41:46;;;;;;;13.80;3.40;;;25.20;67.20;;;;;;219318;1280;22542;-65
2023/08/06 15:46:50;;;;;;;10.40;3.90;;;25.20;67.10;;;;;;219457;1279;22624;-62
2023/08/06 15:51:57;;;;;;;7.90;3.40;;;25.20;66.80;;;;;;219208;1280;22540;-60
2023/08/06 15:57:03;;;;;;;6.10;3.10;;;25.10;66.90;;;;;;219670;1283;22577;-59
2023/08/06 16:02:09;;;;;;;7.80;2.70;;;25.20;66.80;;;;;;219394;1273;22537;-60
2023/08/06 16:07:14;;;;;;;6.30;2.60;;;25.10;66.40;;;;;;219521;1279;23447;-60
2023/08/06 16:12:19;;;;;;;4.70;2.40;;;25.10;66.20;;;;;;219389;1280;22578;-60
2023/08/06 16:17:25;;;;;;;4.20;2.10;;;25.10;66.30;;;;;;218478;1285;22554;-55
2023/08/06 16:22:33;;;;;;;4.40;2.30;;;25.10;65.90;;;;;;218513;1288;22921;-59
2023/08/06 16:27:39;;;;;;;8.10;2.20;;;25.10;65.70;;;;;;218335;1286;24078;-57
2023/08/06 16:32:44;;;;;;;9.10;2.20;;;25.10;65.70;;;;;;218415;1279;22778;-58
2023/08/06 16:37:49;;;;;;;14.30;2.00;;;25.00;65.80;;;;;;219196;1280;22560;-59
2023/08/06 16:42:55;;;;;;;7.60;2.00;;;25.00;66.00;;;;;;219235;1283;24096;-60
2023/08/06 16:48:00;;;;;;;2.90;1.80;;;25.10;65.60;;;;;;218944;1274;24068;-58
2023/08/06 16:53:04;;;;;;;9.80;1.90;;;25.10;64.80;;;;;;219306;1288;22759;-48
2023/08/06 16:58:09;;;;;;;3.10;1.80;;;25.00;65.00;;;;;;219253;1280;24214;-50
2023/08/06 17:03:23;;;;;;;4.60;2.10;;;25.00;65.00;;;;;;219327;1273;22530;-55
2023/08/06 17:08:34;;;;;;;4.90;2.00;;;25.00;65.30;;;;;;219435;1283;22533;-51
2023/08/06 17:13:39;;;;;;;3.90;2.00;;;24.90;64.80;;;;;;219524;1280;22847;-53
2023/08/06 17:18:44;;;;;;;2.60;1.70;;;24.90;65.30;;;;;;219537;1280;22557;-50
2023/08/06 17:23:51;;;;;;;3.10;1.80;;;24.90;65.20;;;;;;219415;1283;22667;-55
2023/08/06 17:28:55;;;;;;;2.40;1.80;;;24.90;64.80;;;;;;219405;1283;25513;-52
2023/08/06 17:34:02;;;;;;;2.60;2.40;;;24.70;64.80;;;;;;219375;1283;23910;-52
2023/08/06 17:39:07;;;;;;;3.20;1.60;;;24.80;64.80;;;;;;219610;1280;22672;-54
2023/08/06 17:44:13;;;;;;;5.80;1.60;;;24.90;64.80;;;;;;219455;1280;24729;-57
2023/08/06 17:49:18;;;;;;;10.30;1.80;;;25.10;64.10;;;;;;219412;1273;25417;-50
2023/08/06 17:54:24;;;;;;;1.60;1.50;;;25.00;64.00;;;;;;219313;1273;22545;-50
2023/08/06 17:59:30;;;;;;;5.10;1.50;;;25.10;63.80;;;;;;219318;1279;22649;-51
2023/08/06 18:04:36;;;;;;;5.90;1.60;;;25.00;64.00;;;;;;219540;1280;24130;-52
2023/08/06 18:09:41;;;;;;;3.80;1.70;;;25.10;63.50;;;;;;219665;1273;22547;-52
2023/08/06 18:14:46;;;;;;;4.70;1.60;;;25.10;63.50;;;;;;219546;1276;22562;-53
2023/08/06 18:19:50;;;;;;;4.80;1.40;;;25.10;63.20;;;;;;219390;1272;22651;-50
2023/08/06 18:24:57;;;;;;;2.80;1.50;;;25.10;63.60;;;;;;219352;1273;24324;-52
2023/08/06 18:30:02;;;;;;;2.10;1.40;;;25.10;63.80;;;;;;220125;1283;22560;-51
2023/08/06 18:35:09;;;;;;;2.00;1.50;;;25.20;64.00;;;;;;219367;1280;22546;-50
2023/08/06 18:40:16;;;;;;;1.50;1.20;;;25.20;64.00;;;;;;219367;1286;24242;-51
2023/08/06 18:45:21;;;;;;;1.80;1.60;;;25.30;64.10;;;;;;219576;1273;22733;-49
2023/08/06 18:50:26;;;;;;;4.40;1.60;;;25.20;64.00;;;;;;219557;1283;22566;-49
2023/08/06 18:55:31;;;;;;;2.80;1.70;;;25.20;63.90;;;;;;219277;1280;22583;-51
2023/08/06 19:00:40;;;;;;;1.80;1.50;;;25.10;64.30;;;;;;219489;1283;22542;-50
2023/08/06 19:05:46;;;;;;;6.00;1.50;;;25.10;64.50;;;;;;219349;1283;22659;-49
2023/08/06 19:10:52;;;;;;;2.40;1.70;;;25.10;64.30;;;;;;219454;1280;22664;-50
2023/08/06 19:16:00;;;;;;;2.90;1.30;;;25.00;64.50;;;;;;219492;1276;22625;-52
2023/08/06 19:21:04;;;;;;;2.70;1.50;;;25.00;64.70;;;;;;219374;1280;25303;-51
2023/08/06 19:26:10;;;;;;;2.90;1.40;;;24.90;64.90;;;;;;219370;1273;24402;-48
2023/08/06 19:31:16;;;;;;;2.60;1.80;;;24.90;65.10;;;;;;219226;1280;24217;-51
2023/08/06 19:36:21;;;;;;;1.30;1.20;;;25.00;64.70;;;;;;219519;1283;24279;-52
2023/08/06 19:41:27;;;;;;;2.30;1.50;;;25.20;64.30;;;;;;219454;1285;25003;-53
2023/08/06 19:46:34;;;;;;;1.50;1.20;;;25.10;64.40;;;;;;219368;1280;22556;-49
2023/08/06 19:51:40;;;;;;;2.90;1.70;;;25.10;64.80;;;;;;219548;1264;24775;-46
2023/08/06 19:56:45;;;;;;;5.20;1.50;;;25.10;64.90;;;;;;219382;1274;23132;-47
2023/08/06 20:01:52;;;;;;;5.70;1.80;;;25.20;65.70;;;;;;219310;1280;24227;-46
2023/08/06 20:06:57;;;;;;;3.30;1.40;;;25.20;66.10;;;;;;219499;1283;23696;-48
2023/08/06 20:12:02;;;;;;;6.00;1.50;;;25.30;66.30;;;;;;219385;1283;22540;-49
2023/08/06 20:17:08;;;;;;;3.20;2.10;;;25.30;66.00;;;;;;219397;1276;24233;-66
2023/08/06 20:22:13;;;;;;;4.60;2.30;;;25.40;66.30;;;;;;219134;1274;22553;-50
2023/08/06 20:27:19;;;;;;;8.00;2.10;;;25.40;66.20;;;;;;219133;1280;24237;-46
2023/08/06 20:32:24;;;;;;;3.70;1.40;;;25.30;66.40;;;;;;219399;1273;22716;-49
2023/08/06 20:37:32;;;;;;;6.10;1.80;;;25.20;66.50;;;;;;219515;1286;25347;-49
2023/08/06 20:42:37;;;;;;;4.30;1.70;;;25.20;66.70;;;;;;219487;1284;24262;-48
2023/08/06 20:47:42;;;;;;;7.10;1.90;;;25.20;66.80;;;;;;219390;1279;22575;-51
2023/08/06 20:52:47;;;;;;;3.00;1.90;;;25.30;67.10;;;;;;219406;1271;24274;-61
2023/08/06 20:57:52;;;;;;;4.80;2.00;;;25.30;66.90;;;;;;219506;1286;23957;-62
2023/08/06 21:02:56;;;;;;;3.00;1.80;;;25.50;66.30;;;;;;219357;1283;22787;-62
2023/08/06 21:08:03;;;;;;;2.20;1.80;;;25.40;66.30;;;;;;219619;1274;25481;-62
2023/08/06 21:13:07;;;;;;;4.60;1.60;;;25.40;66.10;;;;;;219354;1276;25519;-53
2023/08/06 21:18:11;;;;;;;4.00;1.60;;;25.40;66.00;;;;;;219338;1276;22545;-48
2023/08/06 21:23:17;;;;;;;2.80;1.60;;;25.60;65.50;;;;;;219359;1273;23950;-52
2023/08/06 21:28:21;;;;;;;5.30;1.80;;;25.50;65.70;;;;;;219355;1283;24540;-51
2023/08/06 21:33:29;;;;;;;2.60;1.60;;;25.40;66.60;;;;;;219388;1280;22529;-53
2023/08/06 21:38:36;;;;;;;6.20;1.70;;;25.40;66.60;;;;;;219386;1264;22538;-52
2023/08/06 21:43:48;;;;;;;2.00;1.80;;;25.40;66.30;;;;;;219369;1273;22795;-53
2023/08/06 21:48:53;;;;;;;5.20;1.90;;;25.30;66.30;;;;;;219463;1274;22529;-52
2023/08/06 21:53:57;;;;;;;2.50;1.50;;;25.30;66.40;;;;;;219359;1280;22624;-53
2023/08/06 21:59:02;;;;;;;3.00;1.70;;;25.40;66.50;;;;;;219704;1279;22549;-54
2023/08/06 22:04:06;;;;;;;3.40;1.60;;;25.30;65.70;;;;;;219522;1280;22556;-54
2023/08/06 22:09:11;;;;;;;4.20;1.80;;;25.40;65.90;;;;;;219147;1276;24320;-53
2023/08/06 22:14:16;;;;;;;3.40;1.70;;;25.40;65.70;;;;;;219467;1280;25370;-52
2023/08/06 22:19:20;;;;;;;3.20;1.40;;;25.30;66.00;;;;;;220283;1277;22714;-50
2023/08/06 22:24:25;;;;;;;1.70;1.30;;;25.30;66.00;;;;;;219413;1280;22625;-53
2023/08/06 22:29:29;;;;;;;3.40;1.50;;;25.30;65.60;;;;;;219435;1271;24294;-52
2023/08/06 22:34:34;;;;;;;3.50;1.70;;;25.20;65.60;;;;;;219427;1275;22550;-54
2023/08/06 22:39:38;;;;;;;4.50;1.60;;;25.20;65.70;;;;;;219409;1280;26610;-50
2023/08/06 22:44:43;;;;;;;3.70;1.60;;;24.90;66.30;;;;;;219488;1280;24217;-51
2023/08/06 22:49:47;;;;;;;3.00;1.40;;;24.90;66.40;;;;;;219538;1281;22588;-50
2023/08/06 22:54:53;;;;;;;2.30;2.00;;;24.90;66.20;;;;;;219410;1272;24221;-50
2023/08/06 23:00:17;;;;;;;2.70;1.50;;;24.80;66.70;;;;;;219672;1274;22547;-50
2023/08/06 23:05:22;;;;;;;3.00;1.30;;;24.80;66.70;;;;;;219567;1281;22564;-52
2023/08/06 23:10:26;;;;;;;1.60;1.40;;;24.80;66.50;;;;;;219498;1276;22533;-55
2023/08/06 23:15:31;;;;;;;1.30;1.20;;;24.80;66.70;;;;;;219541;1273;25419;-53
2023/08/06 23:20:35;;;;;;;3.80;1.60;;;24.80;66.60;;;;;;219631;1280;24232;-51
2023/08/06 23:25:39;;;;;;;1.30;1.20;;;24.70;66.70;;;;;;219583;1274;22530;-52
2023/08/06 23:30:49;;;;;;;3.10;1.50;;;24.70;67.10;;;;;;219348;1279;22785;-50
2023/08/06 23:35:53;;;;;;;3.80;1.30;;;24.70;66.90;;;;;;219570;1274;22668;-53
2023/08/06 23:40:57;;;;;;;1.70;1.30;;;24.70;66.80;;;;;;219251;1286;24404;-53
2023/08/06 23:46:02;;;;;;;3.00;1.90;;;24.70;66.70;;;;;;219037;1273;22568;-51
2023/08/06 23:51:06;;;;;;;2.20;1.30;;;24.70;66.70;;;;;;222954;1271;22653;-54
2023/08/06 23:56:10;;;;;;;3.30;1.50;;;25.10;65.60;;;;;;219457;1280;22621;-54
